• Join FlightAware (Why Join?)
  • Login
  • US Flag 
07:16PM EDT


 

Airport Tracker/Info


-or-


 

Live Flight TrackerFlight Track Log ✈ N100MJ ✈ 29-Aug-2013 ✈ KSOP - KCQX

Flight Track Log - Related Links

Times and Time Zones

All times are in EDT time to prevent confusion due to time zone crossing. See the N100MJ flight status page for this flight to view local times or setup timezone preferences in your user account.

Time Position Orientation Groundspeed Altitude Reporting Facility
EDT Latitude Longitude Course Direction KTS MPH feet Rate Location/Type
10:35AM 35.3611 -79.1908 36° Northeast 133 153 4,400  Level Washington Center
10:36AM 35.3894 -79.1514 49° Northeast 144 166 4,900 300 Climbing Washington Center
10:37AM 35.4486 -79.1719 31° Northeast  Level FlightAware Approximate
10:37AM 35.4178 -79.1169 45° Northeast 165 190 5,000  Level Washington Center
10:38AM 35.4879 -79.1424 31° Northeast  Level FlightAware Approximate
10:38AM 35.4458 -79.0825 45° Northeast 162 186 5,600  Level Washington Center
10:39AM 35.5166 -79.1001 58° Northeast  Level FlightAware Approximate
10:39AM 35.4781 -79.0456 43° Northeast 152 175 6,200  Level Washington Center
10:40AM 35.5537 -79.0666 36° Northeast  Level FlightAware Approximate
10:40AM 35.5108 -79.0036 46° Northeast 151 174 6,900  Level Washington Center
10:41AM 35.5908 -79.0332 36° Northeast  Level FlightAware Approximate
10:41AM 35.5447 -78.9769 33° Northeast 148 170 7,500  Level Washington Center
10:42AM 35.5811 -78.9478 33° Northeast 148 170 8,100 600 Climbing Washington Center
10:43AM 35.6111 -78.9236 33° Northeast 149 171 8,700 660 Climbing Washington Center
10:45AM 35.6581 -78.8847 34° Northeast 150 173 9,600 660 Climbing Washington Center
10:46AM 35.6900 -78.8553 37° Northeast 150 173 10,200 600 Climbing Washington Center
10:47AM 35.7542 -78.8042 33° Northeast 162 186 11,300 540 Climbing Washington Center
10:48AM 35.7903 -78.7750 33° Northeast 162 186 11,800 360 Climbing Washington Center
10:49AM 35.8286 -78.7431 34° Northeast 157 181 12,100 420 Climbing Washington Center
10:50AM 35.8672 -78.7114 34° Northeast 157 181 12,700 360 Climbing Washington Center
10:51AM 35.9033 -78.6794 36° Northeast 157 181 12,900 60 Climbing Washington Center
10:52AM 35.9439 -78.6478 32° Northeast 157 181 12,900  Level Washington Center
10:53AM 35.9822 -78.6131 36° Northeast 162 186 12,900  Level Washington Center
10:54AM 36.0206 -78.5814 34° Northeast 162 186 12,900  Level Washington Center
10:55AM 36.0592 -78.5494 34° Northeast 162 186 12,900  Level Washington Center
10:57AM 36.0975 -78.5147 36° Northeast 167 192 12,900  Level Washington Center
10:57AM 36.1358 -78.4853 32° Northeast 167 192 12,900  Level Washington Center
10:58AM 36.1619 -78.4375 56° Northeast 160 184 12,900  Level Washington Center
10:59AM 36.1903 -78.3844 56° Northeast 167 192 12,900  Level Washington Center
11:00AM 36.2142 -78.3389 57° Northeast 167 192 12,900  Level Washington Center
11:01AM 36.2467 -78.2936 48° Northeast 162 186 12,900  Level Washington Center
11:02AM 36.2786 -78.2586 41° Northeast 162 186 12,900  Level Washington Center
11:04AM 36.3172 -78.2214 38° Northeast 162 186 12,900  Level Washington Center
11:04AM 36.3469 -78.1914 39° Northeast 162 186 12,900  Level Washington Center
11:05AM 36.3853 -78.1539 38° Northeast 162 186 12,900  Level Washington Center
11:06AM 36.4236 -78.1242 32° Northeast 162 186 12,900  Level Washington Center
11:07AM 36.4597 -78.0919 36° Northeast 157 181 12,900  Level Washington Center
11:08AM 36.5000 -78.0594 33° Northeast 157 181 12,900  Level Washington Center
11:09AM 36.5342 -78.0244 39° Northeast 157 181 12,900  Level Washington Center
11:10AM 36.5722 -77.9947 32° Northeast 157 181 12,900  Level Washington Center
11:11AM 36.6106 -77.9622 34° Northeast 157 181 12,900  Level Washington Center
11:12AM 36.6464 -77.9322 34° Northeast 157 181 12,900  Level Washington Center
11:13AM 36.6825 -77.8994 36° Northeast 157 181 13,000  Climbing Washington Center
11:14AM 36.7208 -77.8669 34° Northeast 152 175 12,900 -60 Descending Washington Center
11:15AM 36.7567 -77.8369 34° Northeast 152 175 12,900  Level Washington Center
11:16AM 36.7928 -77.8069 34° Northeast 152 175 12,900  Level Washington Center
11:17AM 36.8267 -77.7742 38° Northeast 152 175 12,900  Level Washington Center
11:18AM 36.8606 -77.7464 33° Northeast 157 181 12,900  Level Washington Center
11:19AM 36.8967 -77.7139 36° Northeast 157 181 12,900  Level Washington Center
11:20AM 36.9328 -77.6861 32° Northeast 151 174 12,900  Level Washington Center
11:21AM 36.9686 -77.6533 36° Northeast 151 174 12,900  Level Washington Center
11:22AM 37.0067 -77.6231 32° Northeast 151 174 12,900  Level Washington Center
11:23AM 37.0428 -77.5928 34° Northeast 151 174 12,900  Level Washington Center
11:24AM 37.0786 -77.5625 34° Northeast 151 174 12,900  Level Washington Center
11:25AM 37.1167 -77.5322 32° Northeast 151 174 12,900  Level Washington Center
11:26AM 37.1528 -77.5019 34° Northeast 151 174 12,900  Level Washington Center
11:27AM 37.1906 -77.4742 30° Northeast 151 174 12,900  Level Washington Center
11:28AM 37.2267 -77.4439 34° Northeast 151 174 12,900  Level Washington Center
11:29AM 37.2647 -77.4161 30° Northeast 151 174 12,900  Level Washington Center
11:30AM 37.3006 -77.3828 36° Northeast 151 174 12,900  Level Washington Center
11:31AM 37.3364 -77.3525 34° Northeast 151 174 12,900  Level Washington Center
11:32AM 37.3744 -77.3219 33° Northeast 151 174 12,900  Level Washington Center
11:33AM 37.4125 -77.2914 33° Northeast 151 174 12,900  Level Washington Center
11:34AM 37.4503 -77.2633 31° Northeast 151 174 12,900  Level Washington Center
11:35AM 37.4864 -77.2328 34° Northeast 151 174 12,900  Level Washington Center
11:36AM 37.5242 -77.2022 33° Northeast 151 174 12,900  Level Washington Center
11:37AM 37.5622 -77.1717 32° Northeast 151 174 12,900  Level Washington Center
11:38AM 37.5981 -77.1408 34° Northeast 151 174 12,900  Level Washington Center
11:39AM 37.6358 -77.1103 33° Northeast 151 174 12,900  Level Washington Center
11:40AM 37.6758 -77.0822 29° Northeast 156 180 12,900  Level Washington Center
11:41AM 37.7139 -77.0539 30° Northeast 156 180 12,900  Level Washington Center
11:42AM 37.7517 -77.0231 33° Northeast 156 180 12,900  Level Washington Center
11:43AM 37.7897 -76.9950 30° Northeast 156 180 12,900  Level Washington Center
11:44AM 37.8275 -76.9617 35° Northeast 161 185 12,900  Level Washington Center
11:45AM 37.8633 -76.9306 34° Northeast 161 185 12,900  Level Washington Center
11:46AM 37.9011 -76.8997 33° Northeast 161 185 12,900  Level Washington Center
11:47AM 37.9392 -76.8689 33° Northeast 155 178 12,900  Level Washington Center
11:48AM 37.9769 -76.8353 35° Northeast 155 178 12,900  Level Washington Center
11:49AM 38.0067 -76.7908 50° Northeast 155 178 12,900  Level Washington Center
11:50AM 38.0364 -76.7492 48° Northeast 155 178 12,900  Level Washington Center
11:51AM 38.0658 -76.7075 48° Northeast 155 178 12,900  Level Washington Center
11:52AM 38.0975 -76.6631 48° Northeast 160 184 12,900  Level Washington Center
11:53AM 38.1272 -76.6186 50° Northeast 160 184 12,900  Level Washington Center
11:54AM 38.1589 -76.5742 48° Northeast 160 184 12,900  Level Washington Center
11:55AM 38.1883 -76.5322 48° Northeast 160 184 12,900  Level Washington Center
11:56AM 38.2178 -76.4931 46° Northeast 160 184 12,900  Level Washington Center
11:57AM 38.2536 -76.4431 48° Northeast 160 184 12,900  Level Washington Center
11:58AM 38.2853 -76.3986 48° Northeast 160 184 12,900  Level Washington Center
11:59AM 38.3186 -76.3725 32° Northeast 155 178 12,900  Level Washington Center
12:00PM 38.3544 -76.3408 35° Northeast 155 178 12,900  Level Washington Center
12:01PM 38.3919 -76.3069 35° Northeast 155 178 12,900  Level Washington Center
12:02PM 38.4256 -76.2728 39° Northeast 155 178 12,900  Level Washington Center
12:03PM 38.4633 -76.2386 35° Northeast 150 173 12,900  Level Washington Center
12:04PM 38.5011 -76.2019 37° Northeast 150 173 12,900 -120 Level Washington Center
12:06PM 38.5389 -76.1678 35° Northeast 150 173 12,700 -360 Descending Washington Center
12:06PM 38.5681 -76.1308 45° Northeast 155 178 12,300 -420 Descending Washington Center
12:07PM 38.6161 -76.0939 31° Northeast 167 192 11,900 -420 Descending Washington Center
12:08PM 38.6561 -76.0594 34° Northeast 172 198 11,500 -420 Descending Washington Center
12:09PM 38.6936 -76.0200 39° Northeast 172 198 11,100 -480 Descending Washington Center
12:10PM 38.7314 -75.9856 35° Northeast 172 198 10,600 -540 Descending Washington Center
12:11PM 38.7669 -75.9511 37° Northeast 172 198 10,100 -600 Descending Washington Center
12:12PM 38.8025 -75.9192 35° Northeast 172 198 9,500 -600 Descending Washington Center
12:13PM 38.8378 -75.8875 35° Northeast 167 192 9,000 -540 Descending Washington Center
12:14PM 38.8714 -75.8556 36° Northeast 156 180 8,500 -540 Descending Washington Center
12:15PM 38.9069 -75.8236 35° Northeast 156 180 8,000 -540 Descending Washington Center
12:16PM 38.9403 -75.7917 37° Northeast 151 174 7,500 -480 Descending Washington Center
12:17PM 38.9736 -75.7625 34° Northeast 151 174 7,100 -360 Descending Washington Center
12:19PM 39.0069 -75.7333 34° Northeast 146 168 6,800 -180 Descending Washington Center
12:21PM 39.0903 -75.6265 38° Northeast  Level FlightAware Approximate
12:28PM 39.3135 -75.3454 51° Northeast  Level FlightAware Approximate
12:29PM 39.3416 -75.3003 51° Northeast  Level FlightAware Approximate
12:30PM 39.3698 -75.2551 51° Northeast  Level FlightAware Approximate
12:31PM 39.3946 -75.2070 61° Northeast  Level FlightAware Approximate
12:32PM 39.4164 -75.1563 61° Northeast  Level FlightAware Approximate
12:33PM 39.4398 -75.1070 49° Northeast  Level FlightAware Approximate
12:34PM 39.4691 -75.0631 49° Northeast  Level FlightAware Approximate
12:34PM 39.4458 -75.1239 57° Northeast 160 184 5,000  Level Washington Center
12:35PM 39.4984 -75.0191 49° Northeast  Level FlightAware Approximate
12:36PM 39.5277 -74.9751 49° Northeast  Level FlightAware Approximate
12:36PM 39.4848 -75.0801 41° Northeast  Level Estimated
12:37PM 39.5531 -74.9272 57° Northeast  Level FlightAware Approximate
12:38PM 39.5775 -74.8784 57° Northeast  Level FlightAware Approximate
12:39PM 39.6020 -74.8296 57° Northeast  Level FlightAware Approximate
12:40PM 39.6264 -74.7808 57° Northeast  Level FlightAware Approximate
12:43PM 39.7216 -74.8126 41° Northeast  Level Estimated
12:44PM 39.7554 -74.7742 41° Northeast  Level Estimated
12:45PM 39.7886 -74.7364 50° Northeast  Level Estimated
12:46PM 39.8104 -74.6865 60° Northeast  Level FlightAware Approximate
12:47PM 39.8322 -74.6366 60° Northeast  Level FlightAware Approximate
12:48PM 39.8540 -74.5866 60° Northeast  Level FlightAware Approximate
12:49PM 39.8758 -74.5366 60° Northeast  Level FlightAware Approximate
12:50PM 39.8976 -74.4866 60° Northeast  Level FlightAware Approximate
12:51PM 39.9193 -74.4365 60° Northeast  Level FlightAware Approximate
12:52PM 39.9410 -74.3865 61° Northeast  Level FlightAware Approximate
12:53PM 39.9627 -74.3363 61° Northeast  Level FlightAware Approximate
12:54PM 39.9844 -74.2862 61° Northeast  Level FlightAware Approximate
12:55PM 40.0130 -74.2344 43° Northeast  Level FlightAware Approximate
12:56PM 40.0455 -74.1954 43° Northeast  Level FlightAware Approximate
12:56PM 40.0333 -74.2167 28° Northeast 147 169 5,000  Level New York TRACON
12:57PM 40.0780 -74.1564 43° Northeast  Level FlightAware Approximate
12:57PM 40.0833 -74.1833 27° Northeast 151 174 4,900  Level New York TRACON
12:58PM 40.1178 -74.1328 21° North  Level FlightAware Approximate
12:58PM 40.1167 -74.1500 37° Northeast 149 171 5,000  Level New York TRACON
12:59PM 40.1590 -74.1122 21° North  Level FlightAware Approximate
12:59PM 40.1500 -74.1333 21° North 149 171 4,900  Level New York TRACON
01:00PM 40.1952 -74.0822 49° Northeast  Level FlightAware Approximate
01:00PM 40.1833 -74.1000 37° Northeast 151 174 5,000  Level New York TRACON
01:01PM 40.2268 -74.0429 28° Northeast  Level FlightAware Approximate
01:01PM 40.2167 -74.0667 37° Northeast 149 171 5,000  Level New York TRACON
01:02PM 40.2657 -74.0155 28° Northeast  Level FlightAware Approximate
01:02PM 40.2500 -74.0500 21° North 149 171 5,000  Level New York TRACON
01:03PM 40.2833 -74.0167 37° Northeast 150 173 4,900  Descending New York TRACON
01:04PM 40.3333 -74.0000 14° North 151 174 5,000  Climbing New York TRACON
01:05PM 40.3667 -73.9667 37° Northeast 150 173 5,000  Level New York TRACON
01:06PM 40.4000 -73.9500 21° North 148 170 5,000  Level New York TRACON
01:07PM 40.4333 -73.9167 37° Northeast 151 174 5,000  Level New York TRACON
01:08PM 40.4667 -73.8833 37° Northeast 150 173 5,000  Level New York TRACON
01:09PM 40.5000 -73.8667 21° North 148 170 5,000 -60 Level New York TRACON
01:10PM 40.5500 -73.8333 27° Northeast 146 168 4,900 -60 Descending New York TRACON
01:11PM 40.5833 -73.8167 21° North 144 166 4,900  Level New York TRACON
01:12PM 40.6167 -73.7833 37° Northeast 138 159 5,000  Climbing New York TRACON
01:14PM 40.6475 -73.7336 39° Northeast  Level FlightAware Approximate
01:14PM 40.6833 -73.7167 39° Northeast 138 159 5,000  Level New York TRACON
01:15PM 40.7167 -73.6833 37° Northeast 140 161 4,900  Descending New York TRACON
01:16PM 40.7333 -73.6500 57° Northeast 143 165 5,000 -180 Climbing New York TRACON
01:17PM 40.7667 -73.6167 37° Northeast 152 175 4,600 -480 Descending New York TRACON
01:18PM 40.8000 -73.5833 37° Northeast 157 181 4,100 -540 Descending New York TRACON
01:19PM 40.8333 -73.5500 37° Northeast 156 180 3,600 -540 Descending New York TRACON
01:20PM 40.8667 -73.5000 49° Northeast 156 180 3,100 -300 Descending New York TRACON
01:21PM 40.8833 -73.4500 66° East 152 175 3,000 -60 Descending New York TRACON
01:22PM 40.8833 -73.4000 90° East 144 166 3,000  Level New York TRACON
01:23PM 40.9000 -73.3500 66° East 140 161 3,000  Level New York TRACON
01:24PM 40.9333 -73.3333 21° North 144 166 3,000  Level New York TRACON
01:25PM 40.9667 -73.3333 360° North 132 152 3,000  Level New York TRACON
01:26PM 41.0000 -73.3500 339° North 131 151 3,000 -180 Level New York TRACON
01:27PM 41.0333 -73.3333 21° North 134 154 2,700 -420 Descending New York TRACON
01:28PM 41.0667 -73.3167 21° North 140 161 2,200 -360 Descending New York TRACON
01:29PM 41.0833 -73.2667 66° East 133 153 2,000 -120 Descending New York TRACON
01:30PM 41.1000 -73.2333 56° Northeast 110 127 2,000 -300 Level New York TRACON
01:31PM 41.1167 -73.2000 56° Northeast 111 128 1,400 -600 Descending New York TRACON